sensor_id;sensor_type;location;lat;lon;timestamp;P1;durP1;ratioP1;P2;durP2;ratioP2
65533;SDS011;53640;55.838;37.184;2023-12-22T00:01:51;7.35;;;5.43;;
65533;SDS011;53640;55.838;37.184;2023-12-22T00:04:19;8.77;;;5.13;;
65533;SDS011;53640;55.838;37.184;2023-12-22T00:06:47;8.43;;;5.20;;
65533;SDS011;53640;55.838;37.184;2023-12-22T00:09:15;7.38;;;5.25;;
65533;SDS011;53640;55.838;37.184;2023-12-22T00:11:42;7.43;;;5.30;;
65533;SDS011;53640;55.838;37.184;2023-12-22T00:14:10;7.22;;;5.30;;
65533;SDS011;53640;55.838;37.184;2023-12-22T00:16:37;8.63;;;6.18;;
65533;SDS011;53640;55.838;37.184;2023-12-22T00:19:04;6.65;;;5.30;;
65533;SDS011;53640;55.838;37.184;2023-12-22T00:21:31;7.03;;;4.35;;
65533;SDS011;53640;55.838;37.184;2023-12-22T00:23:58;6.47;;;4.85;;
65533;SDS011;53640;55.838;37.184;2023-12-22T00:26:24;8.32;;;5.50;;
65533;SDS011;53640;55.838;37.184;2023-12-22T00:28:54;8.45;;;5.38;;
65533;SDS011;53640;55.838;37.184;2023-12-22T00:31:21;6.75;;;5.10;;
65533;SDS011;53640;55.838;37.184;2023-12-22T00:33:47;6.93;;;5.32;;
65533;SDS011;53640;55.838;37.184;2023-12-22T00:36:14;6.57;;;5.03;;
65533;SDS011;53640;55.838;37.184;2023-12-22T00:38:40;5.50;;;4.22;;
65533;SDS011;53640;55.838;37.184;2023-12-22T00:41:10;6.55;;;4.80;;
65533;SDS011;53640;55.838;37.184;2023-12-22T00:43:37;7.97;;;4.82;;
65533;SDS011;53640;55.838;37.184;2023-12-22T00:46:04;5.72;;;4.70;;
65533;SDS011;53640;55.838;37.184;2023-12-22T00:48:31;7.35;;;5.05;;
65533;SDS011;53640;55.838;37.184;2023-12-22T00:50:59;7.82;;;4.60;;
65533;SDS011;53640;55.838;37.184;2023-12-22T00:53:26;6.50;;;5.03;;
65533;SDS011;53640;55.838;37.184;2023-12-22T00:55:53;6.35;;;4.65;;
65533;SDS011;53640;55.838;37.184;2023-12-22T00:58:19;7.72;;;5.20;;
65533;SDS011;53640;55.838;37.184;2023-12-22T01:00:46;8.57;;;5.47;;
65533;SDS011;53640;55.838;37.184;2023-12-22T01:03:13;7.28;;;5.13;;
65533;SDS011;53640;55.838;37.184;2023-12-22T01:05:41;9.07;;;5.30;;
65533;SDS011;53640;55.838;37.184;2023-12-22T01:08:07;6.45;;;5.15;;
65533;SDS011;53640;55.838;37.184;2023-12-22T01:10:34;8.00;;;4.93;;
65533;SDS011;53640;55.838;37.184;2023-12-22T01:13:01;7.30;;;5.20;;
65533;SDS011;53640;55.838;37.184;2023-12-22T01:15:28;8.23;;;4.78;;
65533;SDS011;53640;55.838;37.184;2023-12-22T01:17:55;7.68;;;5.35;;
65533;SDS011;53640;55.838;37.184;2023-12-22T01:20:22;7.00;;;5.28;;
65533;SDS011;53640;55.838;37.184;2023-12-22T01:23:04;7.13;;;4.75;;
65533;SDS011;53640;55.838;37.184;2023-12-22T01:25:31;7.32;;;5.35;;
65533;SDS011;53640;55.838;37.184;2023-12-22T01:27:57;7.43;;;4.97;;
65533;SDS011;53640;55.838;37.184;2023-12-22T01:30:24;7.22;;;5.00;;
65533;SDS011;53640;55.838;37.184;2023-12-22T01:32:50;9.15;;;5.47;;
65533;SDS011;53640;55.838;37.184;2023-12-22T01:35:17;7.70;;;4.90;;
65533;SDS011;53640;55.838;37.184;2023-12-22T01:37:45;6.65;;;4.90;;
65533;SDS011;53640;55.838;37.184;2023-12-22T01:40:14;8.10;;;4.95;;
65533;SDS011;53640;55.838;37.184;2023-12-22T01:42:41;7.28;;;4.90;;
65533;SDS011;53640;55.838;37.184;2023-12-22T01:45:11;7.38;;;4.72;;
65533;SDS011;53640;55.838;37.184;2023-12-22T01:47:38;8.45;;;5.57;;
65533;SDS011;53640;55.838;37.184;2023-12-22T01:50:06;6.65;;;4.63;;
65533;SDS011;53640;55.838;37.184;2023-12-22T01:52:37;6.30;;;4.65;;
65533;SDS011;53640;55.838;37.184;2023-12-22T01:55:10;6.63;;;4.72;;
65533;SDS011;53640;55.838;37.184;2023-12-22T01:57:39;6.35;;;4.53;;
65533;SDS011;53640;55.838;37.184;2023-12-22T02:00:08;6.95;;;4.85;;
65533;SDS011;53640;55.838;37.184;2023-12-22T02:02:38;6.85;;;4.88;;
65533;SDS011;53640;55.838;37.184;2023-12-22T02:05:08;7.20;;;5.18;;
65533;SDS011;53640;55.838;37.184;2023-12-22T02:07:41;5.72;;;4.65;;
65533;SDS011;53640;55.838;37.184;2023-12-22T02:10:09;7.28;;;4.95;;
65533;SDS011;53640;55.838;37.184;2023-12-22T02:12:39;6.80;;;4.90;;
65533;SDS011;53640;55.838;37.184;2023-12-22T02:15:07;9.43;;;6.00;;
65533;SDS011;53640;55.838;37.184;2023-12-22T02:17:39;8.40;;;5.28;;
65533;SDS011;53640;55.838;37.184;2023-12-22T02:20:10;9.27;;;5.20;;
65533;SDS011;53640;55.838;37.184;2023-12-22T02:22:42;8.13;;;5.05;;
65533;SDS011;53640;55.838;37.184;2023-12-22T02:25:08;9.25;;;5.00;;
65533;SDS011;53640;55.838;37.184;2023-12-22T02:27:44;6.72;;;4.78;;
65533;SDS011;53640;55.838;37.184;2023-12-22T02:30:25;7.20;;;4.97;;
65533;SDS011;53640;55.838;37.184;2023-12-22T02:33:03;7.07;;;4.65;;
65533;SDS011;53640;55.838;37.184;2023-12-22T02:35:32;7.82;;;5.03;;
65533;SDS011;53640;55.838;37.184;2023-12-22T02:38:01;7.95;;;4.95;;
65533;SDS011;53640;55.838;37.184;2023-12-22T02:40:33;7.70;;;5.35;;
65533;SDS011;53640;55.838;37.184;2023-12-22T02:43:05;11.88;;;5.72;;
65533;SDS011;53640;55.838;37.184;2023-12-22T02:45:32;6.70;;;5.35;;
65533;SDS011;53640;55.838;37.184;2023-12-22T02:48:03;9.57;;;5.55;;
65533;SDS011;53640;55.838;37.184;2023-12-22T02:50:30;7.78;;;5.55;;
65533;SDS011;53640;55.838;37.184;2023-12-22T02:52:57;9.35;;;5.65;;
65533;SDS011;53640;55.838;37.184;2023-12-22T02:55:29;6.07;;;4.90;;
65533;SDS011;53640;55.838;37.184;2023-12-22T02:57:57;8.80;;;5.35;;
65533;SDS011;53640;55.838;37.184;2023-12-22T03:00:26;7.30;;;5.15;;
65533;SDS011;53640;55.838;37.184;2023-12-22T03:02:53;8.00;;;5.35;;
65533;SDS011;53640;55.838;37.184;2023-12-22T03:05:19;7.53;;;5.72;;
65533;SDS011;53640;55.838;37.184;2023-12-22T03:07:46;7.10;;;5.45;;
65533;SDS011;53640;55.838;37.184;2023-12-22T03:10:13;8.57;;;5.20;;
65533;SDS011;53640;55.838;37.184;2023-12-22T03:12:39;9.15;;;5.60;;
65533;SDS011;53640;55.838;37.184;2023-12-22T03:15:06;8.55;;;5.72;;
65533;SDS011;53640;55.838;37.184;2023-12-22T03:17:36;7.07;;;5.22;;
65533;SDS011;53640;55.838;37.184;2023-12-22T03:20:05;8.27;;;5.80;;
65533;SDS011;53640;55.838;37.184;2023-12-22T03:22:34;7.57;;;5.45;;
65533;SDS011;53640;55.838;37.184;2023-12-22T03:25:01;8.05;;;5.43;;
65533;SDS011;53640;55.838;37.184;2023-12-22T03:27:31;6.75;;;4.97;;
65533;SDS011;53640;55.838;37.184;2023-12-22T03:29:58;7.93;;;5.70;;
65533;SDS011;53640;55.838;37.184;2023-12-22T03:32:24;7.65;;;5.10;;
65533;SDS011;53640;55.838;37.184;2023-12-22T03:34:51;6.70;;;5.05;;
65533;SDS011;53640;55.838;37.184;2023-12-22T03:37:18;8.27;;;5.07;;
65533;SDS011;53640;55.838;37.184;2023-12-22T03:39:44;8.95;;;5.55;;
65533;SDS011;53640;55.838;37.184;2023-12-22T03:42:11;8.70;;;5.60;;
65533;SDS011;53640;55.838;37.184;2023-12-22T03:44:37;7.55;;;5.60;;
65533;SDS011;53640;55.838;37.184;2023-12-22T03:47:04;8.10;;;5.60;;
65533;SDS011;53640;55.838;37.184;2023-12-22T03:49:31;8.30;;;5.28;;
65533;SDS011;53640;55.838;37.184;2023-12-22T03:51:57;8.82;;;5.45;;
65533;SDS011;53640;55.838;37.184;2023-12-22T03:54:24;8.20;;;5.38;;
65533;SDS011;53640;55.838;37.184;2023-12-22T03:56:51;8.35;;;6.50;;
65533;SDS011;53640;55.838;37.184;2023-12-22T03:59:20;10.50;;;6.05;;
65533;SDS011;53640;55.838;37.184;2023-12-22T04:01:51;9.93;;;6.78;;
65533;SDS011;53640;55.838;37.184;2023-12-22T04:04:19;9.10;;;5.95;;
65533;SDS011;53640;55.838;37.184;2023-12-22T04:06:49;9.23;;;6.50;;
65533;SDS011;53640;55.838;37.184;2023-12-22T04:09:17;8.55;;;6.15;;
65533;SDS011;53640;55.838;37.184;2023-12-22T04:11:44;8.23;;;6.20;;
65533;SDS011;53640;55.838;37.184;2023-12-22T04:14:10;13.93;;;7.18;;
65533;SDS011;53640;55.838;37.184;2023-12-22T04:16:37;9.40;;;6.28;;
65533;SDS011;53640;55.838;37.184;2023-12-22T04:19:04;9.85;;;6.50;;
65533;SDS011;53640;55.838;37.184;2023-12-22T04:21:30;7.38;;;6.05;;
65533;SDS011;53640;55.838;37.184;2023-12-22T04:23:57;9.07;;;6.78;;
65533;SDS011;53640;55.838;37.184;2023-12-22T04:26:48;8.68;;;6.85;;
65533;SDS011;53640;55.838;37.184;2023-12-22T04:29:29;9.85;;;6.55;;
65533;SDS011;53640;55.838;37.184;2023-12-22T04:31:59;10.48;;;7.50;;
65533;SDS011;53640;55.838;37.184;2023-12-22T04:34:33;11.30;;;7.10;;
65533;SDS011;53640;55.838;37.184;2023-12-22T04:37:03;8.23;;;6.38;;
65533;SDS011;53640;55.838;37.184;2023-12-22T04:39:34;10.07;;;7.05;;
65533;SDS011;53640;55.838;37.184;2023-12-22T04:42:04;11.70;;;7.50;;
65533;SDS011;53640;55.838;37.184;2023-12-22T04:44:31;10.43;;;6.80;;
65533;SDS011;53640;55.838;37.184;2023-12-22T04:46:58;12.98;;;7.75;;
65533;SDS011;53640;55.838;37.184;2023-12-22T04:49:24;10.73;;;7.30;;
65533;SDS011;53640;55.838;37.184;2023-12-22T04:51:51;10.57;;;6.72;;
65533;SDS011;53640;55.838;37.184;2023-12-22T04:54:18;10.88;;;6.75;;
65533;SDS011;53640;55.838;37.184;2023-12-22T04:56:45;10.88;;;6.68;;
65533;SDS011;53640;55.838;37.184;2023-12-22T04:59:13;10.63;;;7.28;;
65533;SDS011;53640;55.838;37.184;2023-12-22T05:01:42;10.00;;;6.65;;
65533;SDS011;53640;55.838;37.184;2023-12-22T05:04:11;13.15;;;7.22;;
65533;SDS011;53640;55.838;37.184;2023-12-22T05:06:38;9.75;;;6.63;;
65533;SDS011;53640;55.838;37.184;2023-12-22T05:09:04;8.63;;;6.53;;
65533;SDS011;53640;55.838;37.184;2023-12-22T05:11:31;15.15;;;7.55;;
65533;SDS011;53640;55.838;37.184;2023-12-22T05:13:57;9.77;;;7.13;;
65533;SDS011;53640;55.838;37.184;2023-12-22T05:16:24;11.68;;;7.35;;
65533;SDS011;53640;55.838;37.184;2023-12-22T05:18:55;9.35;;;7.18;;
65533;SDS011;53640;55.838;37.184;2023-12-22T05:21:21;10.57;;;7.20;;
65533;SDS011;53640;55.838;37.184;2023-12-22T05:23:49;10.10;;;7.57;;
65533;SDS011;53640;55.838;37.184;2023-12-22T05:26:19;9.95;;;7.65;;
65533;SDS011;53640;55.838;37.184;2023-12-22T05:28:47;13.30;;;8.35;;
65533;SDS011;53640;55.838;37.184;2023-12-22T05:31:16;12.48;;;8.15;;
65533;SDS011;53640;55.838;37.184;2023-12-22T05:33:43;9.25;;;6.82;;
65533;SDS011;53640;55.838;37.184;2023-12-22T05:36:16;10.63;;;7.40;;
65533;SDS011;53640;55.838;37.184;2023-12-22T05:41:14;11.82;;;7.40;;
65533;SDS011;53640;55.838;37.184;2023-12-22T05:43:41;11.57;;;8.02;;
65533;SDS011;53640;55.838;37.184;2023-12-22T05:46:08;13.10;;;8.40;;
65533;SDS011;53640;55.838;37.184;2023-12-22T05:48:36;12.60;;;8.45;;
65533;SDS011;53640;55.838;37.184;2023-12-22T05:51:02;13.80;;;9.13;;
65533;SDS011;53640;55.838;37.184;2023-12-22T05:53:38;13.18;;;8.48;;
65533;SDS011;53640;55.838;37.184;2023-12-22T05:56:18;12.98;;;8.52;;
65533;SDS011;53640;55.838;37.184;2023-12-22T05:58:47;12.43;;;8.52;;
65533;SDS011;53640;55.838;37.184;2023-12-22T06:01:17;11.57;;;7.95;;
65533;SDS011;53640;55.838;37.184;2023-12-22T06:03:45;13.60;;;9.07;;
65533;SDS011;53640;55.838;37.184;2023-12-22T06:06:12;14.18;;;8.38;;
65533;SDS011;53640;55.838;37.184;2023-12-22T06:08:43;13.48;;;9.10;;
65533;SDS011;53640;55.838;37.184;2023-12-22T06:11:12;13.00;;;8.82;;
65533;SDS011;53640;55.838;37.184;2023-12-22T06:13:40;13.02;;;8.90;;
65533;SDS011;53640;55.838;37.184;2023-12-22T06:16:14;12.75;;;8.93;;
65533;SDS011;53640;55.838;37.184;2023-12-22T06:21:11;13.23;;;9.90;;
65533;SDS011;53640;55.838;37.184;2023-12-22T06:23:38;15.38;;;10.20;;
65533;SDS011;53640;55.838;37.184;2023-12-22T06:26:07;19.33;;;10.02;;
65533;SDS011;53640;55.838;37.184;2023-12-22T06:28:35;14.13;;;10.02;;
65533;SDS011;53640;55.838;37.184;2023-12-22T06:31:04;15.65;;;10.25;;
65533;SDS011;53640;55.838;37.184;2023-12-22T06:33:35;17.52;;;10.32;;
65533;SDS011;53640;55.838;37.184;2023-12-22T06:36:02;16.48;;;10.75;;
65533;SDS011;53640;55.838;37.184;2023-12-22T06:38:30;17.27;;;9.98;;
65533;SDS011;53640;55.838;37.184;2023-12-22T06:40:57;15.07;;;9.88;;
65533;SDS011;53640;55.838;37.184;2023-12-22T06:43:25;14.13;;;10.15;;
65533;SDS011;53640;55.838;37.184;2023-12-22T06:45:51;15.73;;;10.32;;
65533;SDS011;53640;55.838;37.184;2023-12-22T06:48:22;19.13;;;10.20;;
65533;SDS011;53640;55.838;37.184;2023-12-22T06:50:51;14.82;;;10.68;;
65533;SDS011;53640;55.838;37.184;2023-12-22T06:53:17;14.73;;;9.85;;
65533;SDS011;53640;55.838;37.184;2023-12-22T06:55:46;14.63;;;10.30;;
65533;SDS011;53640;55.838;37.184;2023-12-22T06:58:13;18.08;;;10.93;;
65533;SDS011;53640;55.838;37.184;2023-12-22T07:00:40;16.02;;;10.20;;
65533;SDS011;53640;55.838;37.184;2023-12-22T07:03:16;15.05;;;10.68;;
65533;SDS011;53640;55.838;37.184;2023-12-22T07:05:48;15.57;;;10.75;;
65533;SDS011;53640;55.838;37.184;2023-12-22T07:08:17;16.48;;;10.45;;
65533;SDS011;53640;55.838;37.184;2023-12-22T07:10:45;17.30;;;10.73;;
65533;SDS011;53640;55.838;37.184;2023-12-22T07:13:12;16.10;;;10.00;;
65533;SDS011;53640;55.838;37.184;2023-12-22T07:15:39;16.30;;;10.13;;
65533;SDS011;53640;55.838;37.184;2023-12-22T07:18:06;14.52;;;10.43;;
65533;SDS011;53640;55.838;37.184;2023-12-22T07:20:34;17.55;;;11.23;;
65533;SDS011;53640;55.838;37.184;2023-12-22T07:23:01;14.98;;;9.85;;
65533;SDS011;53640;55.838;37.184;2023-12-22T07:25:28;17.58;;;12.20;;
65533;SDS011;53640;55.838;37.184;2023-12-22T07:27:54;17.20;;;11.40;;
65533;SDS011;53640;55.838;37.184;2023-12-22T07:30:20;19.00;;;11.05;;
65533;SDS011;53640;55.838;37.184;2023-12-22T07:32:47;20.05;;;11.68;;
65533;SDS011;53640;55.838;37.184;2023-12-22T07:35:19;20.88;;;10.93;;
65533;SDS011;53640;55.838;37.184;2023-12-22T07:37:45;15.77;;;10.23;;
65533;SDS011;53640;55.838;37.184;2023-12-22T07:40:13;16.17;;;11.48;;
65533;SDS011;53640;55.838;37.184;2023-12-22T07:42:40;20.10;;;11.77;;
65533;SDS011;53640;55.838;37.184;2023-12-22T07:45:08;17.30;;;11.80;;
65533;SDS011;53640;55.838;37.184;2023-12-22T07:50:07;21.15;;;11.65;;
65533;SDS011;53640;55.838;37.184;2023-12-22T07:52:37;16.38;;;11.40;;
65533;SDS011;53640;55.838;37.184;2023-12-22T07:55:08;19.55;;;12.02;;
65533;SDS011;53640;55.838;37.184;2023-12-22T07:57:38;18.15;;;11.75;;
65533;SDS011;53640;55.838;37.184;2023-12-22T08:00:04;18.60;;;12.18;;
65533;SDS011;53640;55.838;37.184;2023-12-22T08:02:38;20.38;;;12.35;;
65533;SDS011;53640;55.838;37.184;2023-12-22T08:05:05;17.90;;;11.93;;
65533;SDS011;53640;55.838;37.184;2023-12-22T08:07:31;20.10;;;13.10;;
65533;SDS011;53640;55.838;37.184;2023-12-22T08:09:57;17.23;;;12.15;;
65533;SDS011;53640;55.838;37.184;2023-12-22T08:12:24;17.38;;;12.20;;
65533;SDS011;53640;55.838;37.184;2023-12-22T08:14:50;15.13;;;10.93;;
65533;SDS011;53640;55.838;37.184;2023-12-22T08:17:16;15.23;;;10.88;;
65533;SDS011;53640;55.838;37.184;2023-12-22T08:19:43;20.08;;;12.25;;
65533;SDS011;53640;55.838;37.184;2023-12-22T08:22:10;17.05;;;11.38;;
65533;SDS011;53640;55.838;37.184;2023-12-22T08:24:36;17.17;;;10.43;;
65533;SDS011;53640;55.838;37.184;2023-12-22T08:27:03;16.02;;;10.88;;
65533;SDS011;53640;55.838;37.184;2023-12-22T08:29:31;17.67;;;11.57;;
65533;SDS011;53640;55.838;37.184;2023-12-22T08:31:58;17.73;;;11.63;;
65533;SDS011;53640;55.838;37.184;2023-12-22T08:34:24;15.88;;;11.00;;
65533;SDS011;53640;55.838;37.184;2023-12-22T08:36:53;16.35;;;10.65;;
65533;SDS011;53640;55.838;37.184;2023-12-22T08:39:19;17.35;;;10.57;;
65533;SDS011;53640;55.838;37.184;2023-12-22T08:41:46;15.40;;;11.50;;
65533;SDS011;53640;55.838;37.184;2023-12-22T08:44:13;15.45;;;10.55;;
65533;SDS011;53640;55.838;37.184;2023-12-22T08:46:42;16.35;;;10.45;;
65533;SDS011;53640;55.838;37.184;2023-12-22T08:49:09;15.60;;;10.75;;
65533;SDS011;53640;55.838;37.184;2023-12-22T08:51:35;13.63;;;10.88;;
65533;SDS011;53640;55.838;37.184;2023-12-22T08:54:02;16.42;;;11.30;;
65533;SDS011;53640;55.838;37.184;2023-12-22T08:56:31;16.98;;;11.02;;
65533;SDS011;53640;55.838;37.184;2023-12-22T08:58:59;15.30;;;10.48;;
65533;SDS011;53640;55.838;37.184;2023-12-22T09:01:25;16.40;;;9.60;;
65533;SDS011;53640;55.838;37.184;2023-12-22T09:03:53;17.42;;;9.90;;
65533;SDS011;53640;55.838;37.184;2023-12-22T09:06:21;12.30;;;9.07;;
65533;SDS011;53640;55.838;37.184;2023-12-22T09:08:48;14.73;;;9.77;;
65533;SDS011;53640;55.838;37.184;2023-12-22T09:11:16;15.07;;;9.38;;
65533;SDS011;53640;55.838;37.184;2023-12-22T09:13:44;13.95;;;9.55;;
65533;SDS011;53640;55.838;37.184;2023-12-22T09:16:11;12.75;;;8.60;;
65533;SDS011;53640;55.838;37.184;2023-12-22T09:18:41;12.35;;;8.55;;
65533;SDS011;53640;55.838;37.184;2023-12-22T09:21:11;12.30;;;8.68;;
65533;SDS011;53640;55.838;37.184;2023-12-22T09:23:37;15.70;;;8.60;;
65533;SDS011;53640;55.838;37.184;2023-12-22T09:26:07;10.60;;;8.25;;
65533;SDS011;53640;55.838;37.184;2023-12-22T09:28:34;11.05;;;8.07;;
65533;SDS011;53640;55.838;37.184;2023-12-22T09:31:01;13.32;;;8.32;;
65533;SDS011;53640;55.838;37.184;2023-12-22T09:33:31;15.60;;;8.40;;
65533;SDS011;53640;55.838;37.184;2023-12-22T09:35:58;12.68;;;8.27;;
65533;SDS011;53640;55.838;37.184;2023-12-22T09:38:25;15.30;;;8.90;;
65533;SDS011;53640;55.838;37.184;2023-12-22T09:40:53;13.30;;;8.38;;
65533;SDS011;53640;55.838;37.184;2023-12-22T09:43:22;13.57;;;8.48;;
65533;SDS011;53640;55.838;37.184;2023-12-22T09:45:50;13.60;;;7.78;;
65533;SDS011;53640;55.838;37.184;2023-12-22T09:48:18;15.77;;;7.55;;
65533;SDS011;53640;55.838;37.184;2023-12-22T09:50:53;9.60;;;7.45;;
65533;SDS011;53640;55.838;37.184;2023-12-22T09:53:21;12.00;;;7.53;;
65533;SDS011;53640;55.838;37.184;2023-12-22T09:55:48;16.13;;;7.82;;
65533;SDS011;53640;55.838;37.184;2023-12-22T09:58:16;13.70;;;8.40;;
65533;SDS011;53640;55.838;37.184;2023-12-22T10:00:43;15.50;;;8.63;;
65533;SDS011;53640;55.838;37.184;2023-12-22T10:03:11;15.88;;;8.35;;
65533;SDS011;53640;55.838;37.184;2023-12-22T10:05:40;14.70;;;8.25;;
65533;SDS011;53640;55.838;37.184;2023-12-22T10:08:08;18.40;;;8.75;;
65533;SDS011;53640;55.838;37.184;2023-12-22T10:10:40;14.50;;;8.50;;
65533;SDS011;53640;55.838;37.184;2023-12-22T10:13:08;17.77;;;8.00;;
65533;SDS011;53640;55.838;37.184;2023-12-22T10:15:37;15.18;;;7.70;;
65533;SDS011;53640;55.838;37.184;2023-12-22T10:18:09;14.77;;;7.43;;
65533;SDS011;53640;55.838;37.184;2023-12-22T10:20:37;12.73;;;7.47;;
65533;SDS011;53640;55.838;37.184;2023-12-22T10:23:05;10.82;;;7.15;;
65533;SDS011;53640;55.838;37.184;2023-12-22T10:25:32;10.82;;;6.95;;
65533;SDS011;53640;55.838;37.184;2023-12-22T10:30:35;13.60;;;7.53;;
65533;SDS011;53640;55.838;37.184;2023-12-22T10:33:06;13.15;;;8.25;;
65533;SDS011;53640;55.838;37.184;2023-12-22T10:38:48;14.27;;;7.68;;
65533;SDS011;53640;55.838;37.184;2023-12-22T10:41:16;14.02;;;7.65;;
65533;SDS011;53640;55.838;37.184;2023-12-22T10:43:43;11.27;;;8.10;;
65533;SDS011;53640;55.838;37.184;2023-12-22T10:46:11;12.02;;;7.90;;
65533;SDS011;53640;55.838;37.184;2023-12-22T10:48:39;12.38;;;8.38;;
65533;SDS011;53640;55.838;37.184;2023-12-22T10:51:10;12.82;;;9.05;;
65533;SDS011;53640;55.838;37.184;2023-12-22T10:53:40;15.05;;;8.63;;
65533;SDS011;53640;55.838;37.184;2023-12-22T10:56:07;14.80;;;9.27;;
65533;SDS011;53640;55.838;37.184;2023-12-22T10:58:35;17.08;;;9.32;;
65533;SDS011;53640;55.838;37.184;2023-12-22T11:01:02;16.30;;;10.23;;
65533;SDS011;53640;55.838;37.184;2023-12-22T11:03:29;16.63;;;10.85;;
65533;SDS011;53640;55.838;37.184;2023-12-22T11:06:00;17.15;;;10.25;;
65533;SDS011;53640;55.838;37.184;2023-12-22T11:08:33;13.82;;;9.85;;
65533;SDS011;53640;55.838;37.184;2023-12-22T11:11:04;14.55;;;9.98;;
65533;SDS011;53640;55.838;37.184;2023-12-22T11:13:43;14.63;;;9.98;;
65533;SDS011;53640;55.838;37.184;2023-12-22T11:16:11;15.48;;;10.25;;
65533;SDS011;53640;55.838;37.184;2023-12-22T11:18:38;15.90;;;10.48;;
65533;SDS011;53640;55.838;37.184;2023-12-22T11:21:07;14.93;;;9.82;;
65533;SDS011;53640;55.838;37.184;2023-12-22T11:23:37;14.23;;;9.77;;
65533;SDS011;53640;55.838;37.184;2023-12-22T11:26:05;16.80;;;10.27;;
65533;SDS011;53640;55.838;37.184;2023-12-22T11:28:37;18.05;;;10.65;;
65533;SDS011;53640;55.838;37.184;2023-12-22T11:31:04;16.70;;;10.30;;
65533;SDS011;53640;55.838;37.184;2023-12-22T11:33:36;14.15;;;9.55;;
65533;SDS011;53640;55.838;37.184;2023-12-22T11:36:05;15.30;;;10.35;;
65533;SDS011;53640;55.838;37.184;2023-12-22T11:38:32;17.38;;;11.25;;
65533;SDS011;53640;55.838;37.184;2023-12-22T11:40:59;16.45;;;11.32;;
65533;SDS011;53640;55.838;37.184;2023-12-22T11:43:27;17.10;;;9.93;;
65533;SDS011;53640;55.838;37.184;2023-12-22T11:45:54;18.13;;;11.15;;
65533;SDS011;53640;55.838;37.184;2023-12-22T11:48:20;15.27;;;10.35;;
65533;SDS011;53640;55.838;37.184;2023-12-22T11:50:47;18.48;;;11.50;;
65533;SDS011;53640;55.838;37.184;2023-12-22T11:53:20;17.73;;;10.70;;
65533;SDS011;53640;55.838;37.184;2023-12-22T11:55:59;20.67;;;10.85;;
65533;SDS011;53640;55.838;37.184;2023-12-22T11:58:41;14.73;;;10.00;;
65533;SDS011;53640;55.838;37.184;2023-12-22T12:01:11;15.88;;;9.80;;
65533;SDS011;53640;55.838;37.184;2023-12-22T12:03:48;15.68;;;9.93;;
65533;SDS011;53640;55.838;37.184;2023-12-22T12:09:00;20.98;;;10.70;;
65533;SDS011;53640;55.838;37.184;2023-12-22T12:14:33;16.38;;;10.07;;
65533;SDS011;53640;55.838;37.184;2023-12-22T12:19:43;15.43;;;10.18;;
65533;SDS011;53640;55.838;37.184;2023-12-22T12:22:12;21.13;;;10.50;;
65533;SDS011;53640;55.838;37.184;2023-12-22T12:24:39;17.15;;;10.43;;
65533;SDS011;53640;55.838;37.184;2023-12-22T12:27:08;16.55;;;11.20;;
65533;SDS011;53640;55.838;37.184;2023-12-22T12:29:47;18.00;;;10.77;;
65533;SDS011;53640;55.838;37.184;2023-12-22T12:32:28;15.30;;;9.77;;
65533;SDS011;53640;55.838;37.184;2023-12-22T12:34:56;15.18;;;10.50;;
65533;SDS011;53640;55.838;37.184;2023-12-22T12:37:23;16.45;;;10.65;;
65533;SDS011;53640;55.838;37.184;2023-12-22T12:39:51;15.35;;;10.07;;
65533;SDS011;53640;55.838;37.184;2023-12-22T12:42:24;17.63;;;10.20;;
65533;SDS011;53640;55.838;37.184;2023-12-22T12:44:55;17.05;;;9.95;;
65533;SDS011;53640;55.838;37.184;2023-12-22T12:47:22;17.58;;;10.25;;
65533;SDS011;53640;55.838;37.184;2023-12-22T12:49:56;15.40;;;10.00;;
65533;SDS011;53640;55.838;37.184;2023-12-22T12:52:26;18.08;;;10.77;;
65533;SDS011;53640;55.838;37.184;2023-12-22T12:54:53;18.17;;;10.35;;
65533;SDS011;53640;55.838;37.184;2023-12-22T12:57:24;15.30;;;10.07;;
65533;SDS011;53640;55.838;37.184;2023-12-22T12:59:51;14.30;;;9.40;;
65533;SDS011;53640;55.838;37.184;2023-12-22T13:02:18;14.75;;;9.57;;
65533;SDS011;53640;55.838;37.184;2023-12-22T13:04:46;17.67;;;10.77;;
65533;SDS011;53640;55.838;37.184;2023-12-22T13:07:13;18.05;;;10.70;;
65533;SDS011;53640;55.838;37.184;2023-12-22T13:09:39;16.48;;;10.70;;
65533;SDS011;53640;55.838;37.184;2023-12-22T13:12:08;13.93;;;9.98;;
65533;SDS011;53640;55.838;37.184;2023-12-22T13:14:35;13.82;;;9.38;;
65533;SDS011;53640;55.838;37.184;2023-12-22T13:17:03;16.05;;;9.88;;
65533;SDS011;53640;55.838;37.184;2023-12-22T13:19:30;15.30;;;9.55;;
65533;SDS011;53640;55.838;37.184;2023-12-22T13:21:57;14.32;;;9.80;;
65533;SDS011;53640;55.838;37.184;2023-12-22T13:24:24;14.48;;;9.65;;
65533;SDS011;53640;55.838;37.184;2023-12-22T13:27:01;14.25;;;9.15;;
65533;SDS011;53640;55.838;37.184;2023-12-22T13:29:30;13.45;;;9.63;;
65533;SDS011;53640;55.838;37.184;2023-12-22T13:32:14;14.88;;;9.50;;
65533;SDS011;53640;55.838;37.184;2023-12-22T13:34:51;13.85;;;9.32;;
65533;SDS011;53640;55.838;37.184;2023-12-22T13:37:19;15.73;;;9.68;;
65533;SDS011;53640;55.838;37.184;2023-12-22T13:39:46;13.98;;;8.30;;
65533;SDS011;53640;55.838;37.184;2023-12-22T13:42:16;14.02;;;9.50;;
65533;SDS011;53640;55.838;37.184;2023-12-22T13:44:46;15.38;;;9.93;;
65533;SDS011;53640;55.838;37.184;2023-12-22T13:47:16;15.20;;;10.00;;
65533;SDS011;53640;55.838;37.184;2023-12-22T13:49:44;16.75;;;9.82;;
65533;SDS011;53640;55.838;37.184;2023-12-22T13:52:31;14.52;;;9.13;;
65533;SDS011;53640;55.838;37.184;2023-12-22T13:55:11;15.57;;;10.20;;
65533;SDS011;53640;55.838;37.184;2023-12-22T13:57:41;15.35;;;9.65;;
65533;SDS011;53640;55.838;37.184;2023-12-22T14:00:29;16.55;;;9.75;;
65533;SDS011;53640;55.838;37.184;2023-12-22T14:02:56;15.53;;;9.70;;
65533;SDS011;53640;55.838;37.184;2023-12-22T14:05:22;16.30;;;10.18;;
65533;SDS011;53640;55.838;37.184;2023-12-22T14:07:50;16.30;;;9.50;;
65533;SDS011;53640;55.838;37.184;2023-12-22T14:10:17;16.38;;;9.98;;
65533;SDS011;53640;55.838;37.184;2023-12-22T14:12:45;15.77;;;10.15;;
65533;SDS011;53640;55.838;37.184;2023-12-22T14:15:13;18.92;;;10.23;;
65533;SDS011;53640;55.838;37.184;2023-12-22T14:17:41;19.13;;;10.88;;
65533;SDS011;53640;55.838;37.184;2023-12-22T14:20:10;15.65;;;10.10;;
65533;SDS011;53640;55.838;37.184;2023-12-22T14:22:40;15.93;;;10.50;;
65533;SDS011;53640;55.838;37.184;2023-12-22T14:25:27;16.77;;;11.00;;
65533;SDS011;53640;55.838;37.184;2023-12-22T14:27:58;16.88;;;10.23;;
65533;SDS011;53640;55.838;37.184;2023-12-22T14:30:25;16.33;;;10.77;;
65533;SDS011;53640;55.838;37.184;2023-12-22T14:32:57;18.75;;;11.52;;
65533;SDS011;53640;55.838;37.184;2023-12-22T14:35:26;18.05;;;12.00;;
65533;SDS011;53640;55.838;37.184;2023-12-22T14:37:53;22.55;;;12.73;;
65533;SDS011;53640;55.838;37.184;2023-12-22T14:43:51;19.55;;;11.55;;
65533;SDS011;53640;55.838;37.184;2023-12-22T14:46:23;17.50;;;11.63;;
65533;SDS011;53640;55.838;37.184;2023-12-22T14:48:51;20.95;;;11.98;;
65533;SDS011;53640;55.838;37.184;2023-12-22T14:51:18;17.73;;;11.40;;
65533;SDS011;53640;55.838;37.184;2023-12-22T14:53:44;15.20;;;11.45;;
65533;SDS011;53640;55.838;37.184;2023-12-22T14:56:12;18.10;;;11.02;;